Camilo Daza International Airport


Codes: SKCC/CUC
Name: Camilo Daza International Airport
City: Cucuta
Country: Colombia
Elevation: 1096 ft.
Wikipedia:

Photos at Camilo Daza International Airport


   Photos courtesy of SpottingLog. You can add your own sightings and photos by signing up for a free trial today.



No photos found.

Weather at Camilo Daza International Airport


Time (UTC)DescriptionTempratureWindCloud coverageVisibilityPressureHumidity
21-Feb-2024 03:00Light Rain27°C2 mph, S20%10000m1015hPa74%
21-Feb-2024 06:00Light Rain26°C0 mph, E43%10000m1015hPa80%
21-Feb-2024 09:00Light Rain24°C2 mph, NE73%10000m1014hPa88%
21-Feb-2024 12:00Light Rain23°C0 mph, W100%10000m1015hPa94%
21-Feb-2024 15:00Light Rain27°C4 mph, N94%10000m1016hPa72%
21-Feb-2024 18:00Light Rain32°C7 mph, N96%10000m1012hPa49%
21-Feb-2024 21:00Overcast Clouds31°C7 mph, N93%10000m1010hPa51%
22-Feb-2024 00:00Light Rain25°C0 mph, S78%10000m1012hPa75%
22-Feb-2024 03:00Light Rain23°C2 mph, S32%10000m1014hPa88%
22-Feb-2024 06:00Light Rain23°C0 mph, NW41%10000m1013hPa93%
22-Feb-2024 09:00Light Rain23°C2 mph, NW98%7552m1013hPa94%
22-Feb-2024 12:00Light Rain23°C0 mph, SW98%10000m1016hPa93%
22-Feb-2024 15:00Light Rain24°C0 mph, NW99%10000m1017hPa89%
22-Feb-2024 18:00Light Rain27°C4 mph, N94%10000m1013hPa70%
22-Feb-2024 21:00Light Rain29°C4 mph, N33%10000m1010hPa57%
23-Feb-2024 00:00Light Rain23°C0 mph, NE34%10000m1013hPa92%
23-Feb-2024 03:00Light Rain23°C2 mph, S74%10000m1014hPa90%
23-Feb-2024 06:00Light Rain23°C0 mph, SE74%10000m1013hPa90%
23-Feb-2024 09:00Light Rain22°C2 mph, NE86%10000m1013hPa92%
23-Feb-2024 12:00Light Rain22°C2 mph, N93%10000m1015hPa93%
23-Feb-2024 15:00Light Rain27°C2 mph, NW95%10000m1015hPa67%
23-Feb-2024 18:00Light Rain30°C7 mph, N80%10000m1011hPa54%
23-Feb-2024 21:00Broken Clouds30°C7 mph, N55%10000m1009hPa56%
24-Feb-2024 00:00Scattered Clouds24°C0 mph, SE34%10000m1011hPa79%
24-Feb-2024 03:00Broken Clouds23°C2 mph, S52%10000m1013hPa83%
24-Feb-2024 06:00Scattered Clouds23°C2 mph, S37%10000m1012hPa84%
24-Feb-2024 09:00Light Rain21°C2 mph, SW41%10000m1013hPa90%
24-Feb-2024 12:00Scattered Clouds23°C2 mph, S34%10000m1015hPa83%
24-Feb-2024 15:00Clear Sky30°C4 mph, N9%10000m1014hPa55%
24-Feb-2024 18:00Few Clouds33°C7 mph, N15%10000m1010hPa44%
24-Feb-2024 21:00Broken Clouds32°C7 mph, N60%10000m1009hPa50%
25-Feb-2024 00:00Light Rain26°C0 mph, SE80%10000m1012hPa76%
25-Feb-2024 03:00Light Rain24°C2 mph, S46%10000m1014hPa84%
25-Feb-2024 06:00Light Rain22°C0 mph, N62%10000m1014hPa94%
25-Feb-2024 09:00Light Rain22°C2 mph, S78%10000m1014hPa94%
25-Feb-2024 12:00Light Rain23°C2 mph, S76%10000m1016hPa89%
25-Feb-2024 15:00Light Rain29°C4 mph, N27%10000m1016hPa61%
25-Feb-2024 18:00Light Rain31°C7 mph, N37%10000m1012hPa53%
25-Feb-2024 21:00Light Rain30°C4 mph, N100%10000m1010hPa60%
26-Feb-2024 00:00Light Rain25°C2 mph, S91%10000m1013hPa78%